Terminal Aerodrome Forecast
Issued by NWS

Home | Current Version | Previous Version | Text Only | Print | Product List | Glossary On
Versions: 1 2 3 4 5 6 7 8 9 10 11 12 13 14 15
000
FTUS44 KLZK 112300
TAFLLQ
TAF
KLLQ 112329Z 1200/1224 07003KT P6SM SCT250
      TEMPO 1209/1213 4SM BR
     FM121500 05003KT P6SM SCT250
     FM121700 05004KT P6SM SCT035 SCT250=

USA.gov is the U.S. government's official web portal to all federal, state and local government web resources and services.